Time;durP1;ratioP1;P1;durP2;ratioP2;P2;SDS_P1;SDS_P2;PMS_P1;PMS_P2;Temp;Humidity;BMP_temperature;BMP_pressure;BME280_temperature;BME280_humidity;BME280_pressure;Samples;Min_cycle;Max_cycle;Signal;HPM_P1;HPM_P2
2023/04/29 00:00:38;;;;;;;4.68;3.28;;;;;;;11.56;100.00;99028.91;4937203;28;20051;-62
2023/04/29 00:03:05;;;;;;;7.70;2.80;;;;;;;11.56;100.00;99026.25;4948722;28;20082;-62
2023/04/29 00:05:32;;;;;;;5.80;2.60;;;;;;;11.60;100.00;99018.47;4945039;28;20125;-62
2023/04/29 00:07:59;;;;;;;3.95;2.40;;;;;;;11.62;100.00;99022.53;4937303;28;20062;-63
2023/04/29 00:10:26;;;;;;;7.88;3.05;;;;;;;11.56;100.00;99028.13;4953889;28;20134;-62
2023/04/29 00:12:53;;;;;;;5.82;2.92;;;;;;;11.54;100.00;99027.56;4944158;28;20047;-62
2023/04/29 00:15:22;;;;;;;10.07;2.92;;;;;;;11.61;100.00;99025.47;4945767;28;20127;-62
2023/04/29 00:17:52;;;;;;;7.35;2.60;;;;;;;11.66;100.00;99033.59;4945208;28;20118;-63
2023/04/29 00:20:19;;;;;;;6.63;2.78;;;;;;;11.64;100.00;99030.34;4945821;28;20047;-62
2023/04/29 00:22:46;;;;;;;5.35;2.85;;;;;;;11.60;100.00;99029.22;4954465;28;20048;-62
2023/04/29 00:25:13;;;;;;;4.10;2.60;;;;;;;11.62;100.00;99027.88;4944852;28;20674;-62
2023/04/29 00:27:40;;;;;;;4.00;2.72;;;;;;;11.57;100.00;99027.03;4939949;28;20443;-62
2023/04/29 00:30:08;;;;;;;5.50;3.17;;;;;;;11.38;100.00;99027.41;4952254;28;20040;-62
2023/04/29 00:32:37;;;;;;;4.95;3.00;;;;;;;11.46;100.00;99028.81;4939732;28;20050;-62
2023/04/29 00:35:04;;;;;;;6.95;3.15;;;;;;;11.54;100.00;99025.69;4944331;28;20138;-62
2023/04/29 00:37:33;;;;;;;5.55;3.25;;;;;;;11.60;100.00;99029.22;4949343;28;20054;-62
2023/04/29 00:40:01;;;;;;;5.75;3.10;;;;;;;11.59;100.00;99033.78;4939124;28;20073;-62
2023/04/29 00:42:28;;;;;;;4.60;2.90;;;;;;;11.53;100.00;99034.81;4942553;28;20449;-62
2023/04/29 00:44:55;;;;;;;6.00;3.10;;;;;;;11.52;100.00;99037.72;4943737;28;20107;-62
2023/04/29 00:47:22;;;;;;;4.55;3.30;;;;;;;11.49;100.00;99038.25;4945105;28;20052;-62
2023/04/29 00:49:51;;;;;;;6.20;3.70;;;;;;;11.38;100.00;99031.94;4947228;28;20078;-62
2023/04/29 00:52:18;;;;;;;5.75;3.33;;;;;;;11.39;100.00;99036.25;4947085;28;20138;-62
2023/04/29 00:54:45;;;;;;;7.20;4.18;;;;;;;11.24;100.00;99031.53;4944152;28;20461;-62
2023/04/29 00:57:12;;;;;;;5.95;4.13;;;;;;;11.25;100.00;99038.50;4943153;28;20122;-62
2023/04/29 00:59:39;;;;;;;7.20;4.25;;;;;;;11.17;100.00;99037.09;4942647;28;20443;-62
2023/04/29 01:02:06;;;;;;;7.47;4.15;;;;;;;10.95;100.00;99039.75;4952662;28;20039;-62
2023/04/29 01:04:33;;;;;;;10.45;4.43;;;;;;;10.93;100.00;99044.59;4944954;28;20047;-62
2023/04/29 01:07:05;;;;;;;6.20;4.28;;;;;;;10.99;100.00;99043.59;4939405;28;20043;-63
2023/04/29 01:09:43;;;;;;;10.57;4.13;;;;;;;10.96;100.00;99052.13;4941832;28;20052;-62
2023/04/29 01:12:15;;;;;;;13.55;8.55;;;;;;;11.22;100.00;99055.13;4942393;28;20048;-62
2023/04/29 01:14:43;;;;;;;13.75;8.30;;;;;;;11.13;100.00;99053.91;4939945;28;20047;-62
2023/04/29 01:17:12;;;;;;;16.65;10.20;;;;;;;11.16;100.00;99056.94;4948164;28;20067;-62
2023/04/29 01:19:45;;;;;;;16.45;10.40;;;;;;;11.20;100.00;99059.91;4949056;28;20053;-62
2023/04/29 01:22:16;;;;;;;14.40;9.20;;;;;;;11.09;100.00;99056.31;4939390;28;20094;-62
2023/04/29 01:24:45;;;;;;;19.15;10.35;;;;;;;11.01;100.00;99060.25;4956362;28;20101;-62
2023/04/29 01:27:17;;;;;;;21.38;13.30;;;;;;;11.00;100.00;99053.22;4951846;28;20489;-62
2023/04/29 01:29:51;;;;;;;24.58;14.07;;;;;;;11.15;100.00;99070.59;4940721;28;20409;-62
2023/04/29 01:32:22;;;;;;;22.00;13.20;;;;;;;11.10;100.00;99067.84;4946940;28;20080;-62
2023/04/29 01:34:53;;;;;;;21.55;12.90;;;;;;;11.05;100.00;99073.13;4938305;28;20047;-62
2023/04/29 01:37:26;;;;;;;25.77;13.63;;;;;;;11.06;100.00;99072.06;4942659;28;20544;-62
2023/04/29 01:39:57;;;;;;;23.00;13.52;;;;;;;11.09;100.00;99068.91;4944183;28;20043;-62
2023/04/29 01:42:30;;;;;;;25.17;14.30;;;;;;;11.07;100.00;99068.34;4946498;28;20054;-62
2023/04/29 01:44:58;;;;;;;24.92;15.60;;;;;;;11.13;100.00;99068.16;4941029;28;20039;-62
2023/04/29 01:47:25;;;;;;;22.95;14.20;;;;;;;11.14;100.00;99068.97;4951972;28;20150;-62
2023/04/29 01:49:54;;;;;;;23.48;13.93;;;;;;;11.09;100.00;99069.72;4937011;29;20123;-62
2023/04/29 01:52:22;;;;;;;25.48;14.65;;;;;;;11.05;100.00;99062.41;4952706;28;20490;-62
2023/04/29 01:54:55;;;;;;;23.75;14.10;;;;;;;11.02;100.00;99064.53;4949672;28;20055;-62
2023/04/29 01:57:22;;;;;;;22.27;13.98;;;;;;;11.01;100.00;99076.34;4949012;28;20066;-62
2023/04/29 01:59:56;;;;;;;23.88;14.18;;;;;;;10.94;100.00;99078.38;4945100;28;20046;-62
2023/04/29 02:02:44;;;;;;;24.17;15.13;;;;;;;10.94;100.00;99072.22;4948858;28;20049;-62
2023/04/29 02:05:32;;;;;;;22.42;13.98;;;;;;;11.01;100.00;99073.66;4937697;28;20047;-62
2023/04/29 02:08:01;;;;;;;22.77;13.05;;;;;;;10.99;100.00;99080.31;4936585;28;20092;-62
2023/04/29 02:10:30;;;;;;;23.40;13.38;;;;;;;11.04;100.00;99079.59;4945672;28;20125;-62
2023/04/29 02:13:13;;;;;;;22.02;12.07;;;;;;;10.98;100.00;99076.84;4937932;28;20047;-62
2023/04/29 02:15:41;;;;;;;21.23;12.35;;;;;;;10.94;100.00;99075.69;4947499;28;20534;-61
2023/04/29 02:18:08;;;;;;;21.83;12.20;;;;;;;11.00;100.00;99080.06;4957315;28;20042;-62
2023/04/29 02:20:35;;;;;;;21.90;13.15;;;;;;;11.09;100.00;99085.00;4944546;28;20154;-62
2023/04/29 02:23:05;;;;;;;26.80;14.02;;;;;;;11.02;100.00;99082.50;4947295;28;20074;-62
2023/04/29 02:25:33;;;;;;;28.73;17.30;;;;;;;10.76;100.00;99084.03;4945188;28;20043;-62
2023/04/29 02:28:00;;;;;;;29.23;16.92;;;;;;;10.71;100.00;99092.00;4936464;28;20075;-62
2023/04/29 02:30:27;;;;;;;34.05;18.00;;;;;;;10.61;100.00;99094.53;4946280;28;20039;-62
2023/04/29 02:32:54;;;;;;;35.63;19.83;;;;;;;10.46;100.00;99095.94;4945964;28;20059;-62
2023/04/29 02:35:21;;;;;;;35.35;19.42;;;;;;;10.46;100.00;99098.63;4948521;28;20043;-62
2023/04/29 02:37:48;;;;;;;39.10;20.13;;;;;;;10.46;100.00;99106.66;4944915;28;20055;-62
2023/04/29 02:40:16;;;;;;;39.95;20.20;;;;;;;10.39;100.00;99102.53;4944983;28;20119;-62
2023/04/29 02:42:44;;;;;;;36.22;18.45;;;;;;;10.27;100.00;99097.19;4941588;28;20454;-62
2023/04/29 02:45:12;;;;;;;34.92;19.65;;;;;;;10.35;100.00;99110.22;4946290;28;20621;-62
2023/04/29 02:47:39;;;;;;;38.72;19.67;;;;;;;10.30;100.00;99110.13;4946183;28;20502;-62
2023/04/29 02:50:25;;;;;;;35.80;18.52;;;;;;;10.24;100.00;99114.56;4950387;28;20268;-62
2023/04/29 02:53:10;;;;;;;36.63;18.77;;;;;;;10.16;100.00;99114.97;4939492;28;20055;-62
2023/04/29 02:55:37;;;;;;;38.95;18.50;;;;;;;10.14;100.00;99120.56;4939857;28;20066;-62
2023/04/29 02:58:10;;;;;;;36.75;19.77;;;;;;;10.20;100.00;99120.66;4944334;28;20062;-62
2023/04/29 03:00:37;;;;;;;33.05;18.60;;;;;;;10.14;100.00;99120.56;4947403;28;20516;-62
2023/04/29 03:03:04;;;;;;;35.72;18.58;;;;;;;10.08;100.00;99126.91;4937426;28;20047;-62
2023/04/29 03:05:31;;;;;;;29.58;18.58;;;;;;;10.04;100.00;99123.06;4942588;28;20113;-62
2023/04/29 03:07:58;;;;;;;30.00;16.95;;;;;;;10.07;100.00;99121.78;4945931;28;20441;-61
2023/04/29 03:10:25;;;;;;;32.33;17.30;;;;;;;10.03;100.00;99124.09;4946184;28;20058;-62
2023/04/29 03:12:52;;;;;;;31.65;17.25;;;;;;;10.06;100.00;99133.53;4948010;28;20039;-62
2023/04/29 03:15:21;;;;;;;29.45;16.70;;;;;;;9.99;100.00;99131.03;4941001;28;20050;-62
2023/04/29 03:17:49;;;;;;;29.05;14.57;;;;;;;10.02;100.00;99129.72;4950465;28;20055;-62
2023/04/29 03:20:16;;;;;;;30.20;14.23;;;;;;;9.93;100.00;99132.81;4949273;28;20051;-62
2023/04/29 03:22:43;;;;;;;29.42;14.88;;;;;;;9.93;100.00;99134.66;4938158;28;20046;-62
2023/04/29 03:25:10;;;;;;;29.48;15.00;;;;;;;9.91;100.00;99136.78;4939103;28;20490;-62
2023/04/29 03:27:39;;;;;;;26.15;14.30;;;;;;;9.96;100.00;99134.19;4953779;28;20514;-62
2023/04/29 03:30:08;;;;;;;28.25;15.05;;;;;;;9.97;100.00;99143.84;4944988;28;20095;-62
2023/04/29 03:32:43;;;;;;;27.95;14.02;;;;;;;9.94;100.00;99138.97;4949558;28;20047;-62
2023/04/29 03:35:11;;;;;;;30.05;14.25;;;;;;;9.96;100.00;99142.22;4944321;28;20065;-62
2023/04/29 03:37:48;;;;;;;26.13;12.63;;;;;;;9.95;100.00;99137.91;4956101;28;20133;-62
2023/04/29 03:40:23;;;;;;;24.55;12.98;;;;;;;9.85;100.00;99149.22;4964045;28;20574;-62
2023/04/29 03:42:50;;;;;;;22.75;13.07;;;;;;;9.81;100.00;99144.59;4947744;28;20048;-62
2023/04/29 03:45:18;;;;;;;26.17;13.55;;;;;;;9.86;100.00;99145.53;4953565;28;20035;-62
2023/04/29 03:47:47;;;;;;;22.48;12.65;;;;;;;9.87;100.00;99151.69;4948022;28;20142;-62
2023/04/29 03:50:14;;;;;;;22.60;13.15;;;;;;;9.79;100.00;99150.19;4940061;28;20039;-62
2023/04/29 03:52:41;;;;;;;23.13;12.15;;;;;;;9.91;100.00;99144.81;4947157;28;20051;-62
2023/04/29 03:55:15;;;;;;;24.35;12.27;;;;;;;9.96;100.00;99152.94;4948791;28;20051;-62
2023/04/29 03:57:43;;;;;;;21.38;11.98;;;;;;;9.85;100.00;99149.22;4947795;28;20073;-62
2023/04/29 04:00:12;;;;;;;24.05;13.25;;;;;;;9.84;100.00;99152.97;4950080;28;20091;-61
2023/04/29 04:02:49;;;;;;;22.00;11.75;;;;;;;9.86;100.00;99160.75;4946134;28;20408;-62
2023/04/29 04:05:18;;;;;;;29.15;11.65;;;;;;;9.76;100.00;99160.56;4948303;28;20074;-62
2023/04/29 04:07:49;;;;;;;19.45;10.55;;;;;;;9.76;100.00;99161.38;4951714;28;20051;-63
2023/04/29 04:10:35;;;;;;;22.35;11.18;;;;;;;9.67;100.00;99160.94;4941533;28;20577;-62
2023/04/29 04:13:07;;;;;;;21.02;12.05;;;;;;;9.69;100.00;99166.88;4944086;28;20506;-61
2023/04/29 04:15:34;;;;;;;23.23;11.32;;;;;;;9.78;100.00;99163.81;4943394;28;20049;-62
2023/04/29 04:18:03;;;;;;;21.95;11.63;;;;;;;9.77;100.00;99172.91;4949755;28;20131;-62
2023/04/29 04:20:30;;;;;;;21.05;11.95;;;;;;;9.67;100.00;99174.31;4945054;28;20131;-61
2023/04/29 04:22:57;;;;;;;21.58;12.07;;;;;;;9.75;100.00;99170.44;4950117;28;20144;-62
2023/04/29 04:25:29;;;;;;;21.75;11.45;;;;;;;9.79;99.96;99168.94;4950867;28;20421;-61
2023/04/29 04:28:03;;;;;;;22.80;12.38;;;;;;;9.77;99.02;99170.22;4943879;28;20051;-61
2023/04/29 04:31:00;;;;;;;18.23;10.18;;;;;;;9.76;95.50;99176.63;4934725;28;20598;-62
2023/04/29 04:33:28;;;;;;;23.50;11.63;;;;;;;9.82;95.35;99181.84;4950781;28;20078;-62
2023/04/29 04:35:55;;;;;;;20.75;9.93;;;;;;;9.86;98.37;99188.34;4949985;28;20079;-61
2023/04/29 04:38:25;;;;;;;19.75;10.77;;;;;;;9.79;98.13;99198.38;4949462;28;20059;-62
2023/04/29 04:40:53;;;;;;;21.15;10.57;;;;;;;9.93;97.82;99198.91;4948026;28;20087;-61
2023/04/29 04:43:35;;;;;;;20.50;10.82;;;;;;;9.83;97.41;99196.03;4944921;28;20138;-62
2023/04/29 04:46:10;;;;;;;17.85;10.57;;;;;;;9.80;97.84;99205.34;4951133;28;20048;-62
2023/04/29 04:48:41;;;;;;;18.70;10.40;;;;;;;9.74;98.03;99197.47;4944699;28;20043;-65
2023/04/29 04:51:10;;;;;;;17.55;9.95;;;;;;;9.67;97.93;99203.75;4941645;28;20669;-62
2023/04/29 04:53:37;;;;;;;17.65;10.27;;;;;;;9.66;98.07;99202.16;4944953;28;20637;-62
2023/04/29 04:56:11;;;;;;;22.48;10.93;;;;;;;9.72;97.70;99209.22;4950097;28;20043;-62
2023/04/29 04:58:38;;;;;;;22.27;11.15;;;;;;;9.77;98.27;99210.38;4946052;28;20051;-61
2023/04/29 05:01:06;;;;;;;19.25;11.15;;;;;;;9.74;97.92;99214.34;4936642;28;20529;-62
2023/04/29 05:03:33;;;;;;;23.85;12.73;;;;;;;9.71;98.44;99218.31;4945152;28;20051;-62
2023/04/29 05:06:01;;;;;;;24.50;12.93;;;;;;;9.69;99.54;99219.59;4947862;28;20520;-62
2023/04/29 05:08:30;;;;;;;22.33;12.95;;;;;;;9.71;99.46;99225.53;4937540;28;20035;-62
2023/04/29 05:10:59;;;;;;;21.85;12.60;;;;;;;9.75;99.39;99223.19;4939315;28;20139;-62
2023/04/29 05:13:27;;;;;;;21.13;11.77;;;;;;;9.66;99.54;99228.91;4949243;28;20042;-62
2023/04/29 05:15:55;;;;;;;20.20;10.65;;;;;;;9.66;99.24;99230.75;4935694;29;20056;-61
2023/04/29 05:18:26;;;;;;;21.45;10.98;;;;;;;9.72;97.80;99233.31;4947683;28;20054;-62
2023/04/29 05:20:53;;;;;;;19.42;10.40;;;;;;;9.75;98.51;99244.59;4938837;28;20572;-62
2023/04/29 05:23:22;;;;;;;19.77;10.93;;;;;;;9.59;100.00;99246.94;4940085;28;20051;-62
2023/04/29 05:25:49;;;;;;;21.20;10.73;;;;;;;9.63;100.00;99250.75;4944519;28;20138;-62
2023/04/29 05:28:17;;;;;;;17.85;9.60;;;;;;;9.63;100.00;99248.09;4949206;28;20039;-62
2023/04/29 05:30:45;;;;;;;16.08;10.30;;;;;;;9.82;100.00;99247.94;4940155;28;20484;-62
2023/04/29 05:33:13;;;;;;;17.85;10.50;;;;;;;9.79;100.00;99251.09;4950115;28;20313;-62
2023/04/29 05:35:43;;;;;;;18.50;9.32;;;;;;;9.77;100.00;99247.84;4935079;28;20130;-62
2023/04/29 05:38:10;;;;;;;19.02;10.73;;;;;;;9.79;100.00;99251.09;4954254;28;20039;-62
2023/04/29 05:40:41;;;;;;;19.40;10.68;;;;;;;9.87;100.00;99253.41;4953669;28;20552;-62
2023/04/29 05:43:37;;;;;;;20.50;10.80;;;;;;;9.80;100.00;99263.44;4930415;28;20054;-62
2023/04/29 05:46:05;;;;;;;21.17;11.38;;;;;;;9.86;100.00;99263.31;4942342;28;20138;-62
2023/04/29 05:48:32;;;;;;;24.40;11.65;;;;;;;9.93;100.00;99268.50;4936055;28;20370;-62
2023/04/29 05:50:59;;;;;;;26.00;14.18;;;;;;;9.81;99.79;99270.41;4940514;28;20127;-62
2023/04/29 05:53:26;;;;;;;25.63;14.32;;;;;;;9.94;100.00;99270.97;4946413;28;20110;-62
2023/04/29 05:55:55;;;;;;;31.35;15.88;;;;;;;9.99;100.00;99272.94;4946092;28;20044;-61
2023/04/29 05:58:22;;;;;;;42.03;18.13;;;;;;;9.99;100.00;99280.97;4941409;28;20051;-62
2023/04/29 06:00:50;;;;;;;29.70;16.42;;;;;;;9.85;100.00;99282.28;4939787;28;20099;-62
2023/04/29 06:03:22;;;;;;;32.75;16.90;;;;;;;9.97;100.00;99285.72;4954065;28;20051;-63
2023/04/29 06:05:55;;;;;;;28.50;16.00;;;;;;;9.88;100.00;99284.47;4931519;29;20047;-62
2023/04/29 06:08:41;;;;;;;36.83;18.70;;;;;;;9.77;100.00;99286.13;4948411;28;20047;-62
2023/04/29 06:11:17;;;;;;;41.30;19.77;;;;;;;9.78;100.00;99297.63;4926721;28;20435;-62
2023/04/29 06:13:46;;;;;;;37.10;18.63;;;;;;;9.91;100.00;99294.72;4941966;28;20076;-62
2023/04/29 06:16:13;;;;;;;33.72;17.75;;;;;;;10.07;100.00;99307.34;4941117;28;20439;-62
2023/04/29 06:18:40;;;;;;;39.90;21.52;;;;;;;9.97;100.00;99301.81;4946501;28;20045;-62
2023/04/29 06:21:07;;;;;;;46.83;22.58;;;;;;;9.83;100.00;99306.59;4940151;28;20070;-62
2023/04/29 06:23:35;;;;;;;51.67;23.67;;;;;;;10.06;100.00;99308.44;4947695;28;20066;-62
2023/04/29 06:26:07;;;;;;;49.45;24.10;;;;;;;9.91;100.00;99314.28;4942468;28;20047;-62
2023/04/29 06:28:36;;;;;;;49.40;23.08;;;;;;;9.97;100.00;99317.88;4942492;28;20043;-62
2023/04/29 06:31:03;;;;;;;47.95;22.98;;;;;;;10.11;100.00;99319.25;4940540;28;20083;-61
2023/04/29 06:33:32;;;;;;;50.88;24.85;;;;;;;9.70;100.00;99321.03;4940243;28;20040;-62
2023/04/29 06:36:00;;;;;;;53.35;24.65;;;;;;;9.90;100.00;99323.34;4951328;28;20043;-62
2023/04/29 06:38:53;;;;;;;55.60;26.05;;;;;;;9.68;100.00;99325.84;4920797;28;20442;-62
2023/04/29 06:41:59;;;;;;;54.38;25.25;;;;;;;9.80;100.00;99331.16;4884386;29;20526;-62
2023/04/29 06:45:07;;;;;;;54.67;25.63;;;;;;;9.98;100.00;99338.22;4872115;29;20064;-62
2023/04/29 06:48:00;;;;;;;55.10;24.85;;;;;;;9.98;100.00;99335.53;4942519;28;20777;-62
2023/04/29 06:50:39;;;;;;;59.25;26.00;;;;;;;9.82;100.00;99330.94;4931205;29;20198;-62
2023/04/29 06:53:07;;;;;;;59.67;25.70;;;;;;;9.96;100.00;99343.03;4935393;28;20490;-62
2023/04/29 06:55:35;;;;;;;55.13;23.80;;;;;;;10.07;100.00;99350.22;4934759;28;20070;-61
2023/04/29 06:58:03;;;;;;;47.13;21.08;;;;;;;10.08;100.00;99349.19;4937873;28;20039;-62
2023/04/29 07:00:32;;;;;;;52.10;22.20;;;;;;;10.06;100.00;99348.59;4947706;28;20043;-62
2023/04/29 07:02:59;;;;;;;46.63;21.48;;;;;;;9.98;100.00;99356.16;4941591;28;20348;-62
2023/04/29 07:05:26;;;;;;;47.55;20.90;;;;;;;9.64;100.00;99351.44;4939456;28;20055;-62
2023/04/29 07:07:53;;;;;;;51.28;20.83;;;;;;;9.81;100.00;99350.69;4941361;28;20135;-62
2023/04/29 07:10:20;;;;;;;50.17;20.27;;;;;;;9.70;100.00;99357.69;4933882;28;20051;-62
2023/04/29 07:12:48;;;;;;;42.85;17.63;;;;;;;9.82;100.00;99360.38;4943648;28;20166;-62
2023/04/29 07:15:16;;;;;;;41.95;18.60;;;;;;;9.94;100.00;99361.19;4943087;28;20124;-61
2023/04/29 07:17:45;;;;;;;43.88;18.58;;;;;;;10.46;100.00;99368.41;4951045;28;20394;-62
2023/04/29 07:20:13;;;;;;;32.92;15.27;;;;;;;10.40;100.00;99369.38;4947410;28;20102;-62
2023/04/29 07:22:40;;;;;;;29.73;13.23;;;;;;;10.20;100.00;99370.56;4950810;28;20656;-62
2023/04/29 07:25:09;;;;;;;27.35;13.07;;;;;;;10.32;100.00;99378.59;4946039;28;20103;-62
2023/04/29 07:27:36;;;;;;;23.58;12.30;;;;;;;10.17;100.00;99381.75;4943862;28;20047;-62
2023/04/29 07:30:04;;;;;;;23.42;11.75;;;;;;;10.24;100.00;99381.63;4951158;28;20046;-62
2023/04/29 07:32:32;;;;;;;23.63;11.75;;;;;;;10.45;100.00;99385.56;4946760;28;20046;-63
2023/04/29 07:35:04;;;;;;;26.88;12.20;;;;;;;10.58;100.00;99388.78;4953083;28;20178;-62
2023/04/29 07:37:32;;;;;;;21.20;11.73;;;;;;;10.17;100.00;99391.66;4946278;28;20055;-61
2023/04/29 07:40:00;;;;;;;23.60;12.77;;;;;;;10.44;100.00;99397.34;4948850;28;20055;-62
2023/04/29 07:42:27;;;;;;;24.33;13.00;;;;;;;10.35;100.00;99400.38;4944175;28;20059;-62
2023/04/29 07:44:54;;;;;;;26.75;13.05;;;;;;;10.47;100.00;99407.56;4947931;28;20051;-61
2023/04/29 07:47:22;;;;;;;25.02;13.43;;;;;;;10.57;100.00;99405.91;4931999;28;20083;-61
2023/04/29 07:49:51;;;;;;;23.65;12.63;;;;;;;10.54;100.00;99393.00;4951080;28;20047;-61
2023/04/29 07:52:19;;;;;;;25.70;13.25;;;;;;;10.38;100.00;99404.44;4947427;28;20051;-61
2023/04/29 07:54:49;;;;;;;24.58;12.52;;;;;;;10.55;99.70;99399.97;4944481;28;20047;-61
2023/04/29 07:57:16;;;;;;;26.85;12.02;;;;;;;10.92;98.36;99410.31;4948731;28;20146;-61
2023/04/29 07:59:43;;;;;;;25.15;12.23;;;;;;;11.31;97.00;99410.47;4943695;28;20035;-61
2023/04/29 08:02:10;;;;;;;21.95;12.68;;;;;;;11.15;96.55;99419.31;4951013;28;20051;-61
2023/04/29 08:04:40;;;;;;;23.80;12.05;;;;;;;10.89;97.02;99426.09;4946612;28;20058;-61
2023/04/29 08:07:10;;;;;;;21.80;11.95;;;;;;;10.48;97.64;99430.63;4948648;28;20047;-61
2023/04/29 08:09:38;;;;;;;21.45;11.52;;;;;;;10.52;98.32;99429.94;4941892;28;20046;-61
2023/04/29 08:12:06;;;;;;;24.60;12.60;;;;;;;10.25;100.00;99434.94;4947641;28;20471;-61
2023/04/29 08:14:33;;;;;;;21.83;12.07;;;;;;;10.82;96.63;99439.63;4943423;28;20126;-61
2023/04/29 08:17:01;;;;;;;19.42;10.88;;;;;;;10.88;96.50;99444.03;4945115;28;20055;-61
2023/04/29 08:19:28;;;;;;;19.85;10.98;;;;;;;10.73;95.61;99441.88;4947123;28;20038;-61
2023/04/29 08:21:55;;;;;;;20.90;11.45;;;;;;;10.86;94.63;99454.19;4944642;28;20035;-61
2023/04/29 08:24:22;;;;;;;20.70;11.15;;;;;;;10.77;96.23;99450.25;4946247;28;20082;-61
2023/04/29 08:26:51;;;;;;;18.02;10.23;;;;;;;10.25;95.88;99452.88;4950872;28;20718;-61
2023/04/29 08:29:18;;;;;;;20.05;11.98;;;;;;;10.38;96.55;99449.97;4950728;28;20098;-61
2023/04/29 08:31:45;;;;;;;21.55;11.43;;;;;;;10.64;94.00;99456.69;4945797;28;20046;-61
2023/04/29 08:34:12;;;;;;;21.50;11.98;;;;;;;10.77;95.36;99460.97;4948999;28;20112;-61
2023/04/29 08:36:39;;;;;;;20.98;12.10;;;;;;;11.00;92.15;99458.19;4939514;28;20116;-61
2023/04/29 08:39:06;;;;;;;22.65;10.90;;;;;;;10.71;92.98;99451.22;4938573;28;20404;-61
2023/04/29 08:41:33;;;;;;;20.60;11.40;;;;;;;10.66;94.38;99456.44;4945769;28;20131;-61
2023/04/29 08:44:02;;;;;;;23.98;11.25;;;;;;;10.52;95.77;99448.69;4946700;28;20512;-61
2023/04/29 08:46:29;;;;;;;19.08;11.48;;;;;;;10.64;94.14;99459.38;4943175;28;20462;-61
2023/04/29 08:48:56;;;;;;;23.90;10.65;;;;;;;10.84;93.37;99467.03;4940717;28;20067;-61
2023/04/29 08:51:24;;;;;;;21.65;11.75;;;;;;;10.76;93.13;99459.34;4948939;28;20054;-61
2023/04/29 08:53:52;;;;;;;19.40;10.45;;;;;;;10.86;92.55;99467.59;4950084;28;20043;-61
2023/04/29 08:56:20;;;;;;;16.58;8.80;;;;;;;10.89;90.60;99461.75;4950066;28;20130;-61
2023/04/29 08:58:48;;;;;;;17.17;9.05;;;;;;;10.94;90.55;99469.91;4943328;28;20043;-61
2023/04/29 09:01:16;;;;;;;15.10;8.88;;;;;;;11.00;88.94;99474.28;4943010;28;20075;-61
2023/04/29 09:03:47;;;;;;;15.38;7.78;;;;;;;10.99;88.48;99469.19;4941849;28;20047;-61
2023/04/29 09:06:14;;;;;;;16.48;7.68;;;;;;;10.80;89.89;99473.91;4957403;28;20098;-61
2023/04/29 09:08:41;;;;;;;20.35;9.63;;;;;;;10.95;90.44;99481.44;4946975;28;20397;-61
2023/04/29 09:11:09;;;;;;;15.10;7.95;;;;;;;10.84;91.14;99479.63;4942636;28;20561;-61
2023/04/29 09:13:36;;;;;;;12.40;6.03;;;;;;;10.73;89.13;99486.63;4944808;28;20053;-61
2023/04/29 09:16:04;;;;;;;11.20;6.18;;;;;;;11.09;87.94;99490.84;4947005;28;20446;-62
2023/04/29 09:18:46;;;;;;;12.30;5.70;;;;;;;11.07;86.36;99492.13;4938584;28;20124;-62
2023/04/29 09:21:14;;;;;;;10.70;5.30;;;;;;;10.87;86.47;99498.72;4938501;28;20039;-62
2023/04/29 09:23:41;;;;;;;11.35;5.47;;;;;;;10.91;87.58;99493.72;4948505;28;20130;-62
2023/04/29 09:26:08;;;;;;;10.27;4.97;;;;;;;11.18;85.77;99499.31;4942245;28;20494;-62
2023/04/29 09:28:35;;;;;;;14.05;5.38;;;;;;;11.56;84.73;99500.53;4934845;28;20399;-62
2023/04/29 09:31:05;;;;;;;10.35;5.60;;;;;;;11.57;84.81;99502.97;4935491;28;20070;-62
2023/04/29 09:33:32;;;;;;;12.53;5.97;;;;;;;11.36;85.66;99501.00;4949347;28;20031;-62
2023/04/29 09:36:00;;;;;;;10.95;5.95;;;;;;;11.73;85.00;99511.28;4952074;28;20044;-62
2023/04/29 09:38:27;;;;;;;12.90;6.40;;;;;;;11.82;85.98;99505.25;4957807;28;20130;-62
2023/04/29 09:40:55;;;;;;;11.02;6.07;;;;;;;12.08;86.29;99513.75;4945841;28;20039;-62
2023/04/29 09:43:22;;;;;;;16.65;7.28;;;;;;;11.48;85.92;99514.34;4945748;28;20064;-62
2023/04/29 09:45:52;;;;;;;14.18;7.90;;;;;;;11.51;86.10;99511.19;4943080;28;20043;-62
2023/04/29 09:48:19;;;;;;;16.07;8.00;;;;;;;11.34;85.95;99517.31;4945436;28;20390;-62
2023/04/29 09:50:46;;;;;;;17.35;8.98;;;;;;;11.47;84.09;99518.09;4936333;28;20071;-62
2023/04/29 09:53:27;;;;;;;17.15;8.68;;;;;;;11.69;84.14;99518.22;4944117;28;20409;-62
2023/04/29 09:56:01;;;;;;;19.52;10.05;;;;;;;11.50;84.70;99522.97;4943730;28;20135;-62
2023/04/29 09:58:29;;;;;;;20.17;9.65;;;;;;;11.62;85.36;99524.53;4940765;28;20069;-62
2023/04/29 10:00:59;;;;;;;19.27;9.98;;;;;;;11.78;84.10;99531.00;4931226;28;22068;-62
2023/04/29 10:03:27;;;;;;;17.45;8.65;;;;;;;12.19;83.18;99541.59;4933290;28;20051;-62
2023/04/29 10:05:54;;;;;;;19.63;10.52;;;;;;;11.92;83.32;99541.44;4945149;28;20032;-62
2023/04/29 10:08:22;;;;;;;20.05;10.75;;;;;;;11.71;86.05;99542.94;4939085;28;20040;-62
2023/04/29 10:10:56;;;;;;;23.23;11.20;;;;;;;11.47;89.12;99536.88;4939831;28;20534;-62
2023/04/29 10:13:23;;;;;;;19.73;11.10;;;;;;;11.72;88.26;99547.25;4939836;28;20550;-61
2023/04/29 10:15:55;;;;;;;21.35;11.32;;;;;;;11.77;88.03;99550.84;4946764;28;20146;-62
2023/04/29 10:18:22;;;;;;;23.83;11.57;;;;;;;11.43;87.40;99545.41;4941497;28;20071;-62
2023/04/29 10:20:49;;;;;;;19.98;10.98;;;;;;;11.26;88.19;99549.91;4938957;28;20134;-62
2023/04/29 10:23:22;;;;;;;17.83;10.55;;;;;;;11.38;88.37;99550.69;4938255;28;20103;-62
2023/04/29 10:25:51;;;;;;;18.20;10.30;;;;;;;11.55;86.71;99556.06;4932293;28;20397;-62
2023/04/29 10:28:19;;;;;;;18.45;10.63;;;;;;;11.20;88.50;99556.22;4934622;28;20047;-62
2023/04/29 10:30:50;;;;;;;18.50;10.32;;;;;;;11.76;86.45;99559.97;4939198;28;20134;-62
2023/04/29 10:33:17;;;;;;;19.23;11.25;;;;;;;11.62;87.46;99559.44;4930955;28;20046;-62
2023/04/29 10:35:44;;;;;;;18.00;10.25;;;;;;;11.56;85.67;99562.28;4932794;28;20052;-62
2023/04/29 10:38:15;;;;;;;17.17;10.10;;;;;;;11.92;85.09;99568.31;4930825;28;20051;-62
2023/04/29 10:40:46;;;;;;;16.70;10.00;;;;;;;11.71;84.12;99561.75;4929803;28;20106;-62
2023/04/29 10:43:15;;;;;;;16.27;9.48;;;;;;;11.61;83.99;99559.69;4936963;28;20047;-62
2023/04/29 10:45:42;;;;;;;17.67;9.93;;;;;;;11.74;85.22;99555.88;4938620;28;20044;-62
2023/04/29 10:48:14;;;;;;;17.00;10.18;;;;;;;11.87;83.46;99559.09;4943503;28;20047;-62
2023/04/29 10:51:00;;;;;;;16.17;10.75;;;;;;;11.98;83.46;99559.25;4940443;28;20548;-62
2023/04/29 10:53:28;;;;;;;15.90;10.27;;;;;;;11.79;83.90;99559.47;4944266;28;20058;-62
2023/04/29 10:55:58;;;;;;;19.65;9.75;;;;;;;11.68;84.46;99552.28;4939619;28;20440;-62
2023/04/29 10:58:41;;;;;;;18.73;10.25;;;;;;;11.82;83.35;99553.59;4940598;28;20048;-62
2023/04/29 11:01:09;;;;;;;14.65;9.85;;;;;;;11.66;83.42;99552.53;4940840;28;20043;-62
2023/04/29 11:03:57;;;;;;;16.20;10.50;;;;;;;11.76;84.94;99557.28;4942816;28;20190;-62
2023/04/29 11:06:24;;;;;;;17.05;10.75;;;;;;;11.19;86.54;99557.28;4941932;28;20459;-62
2023/04/29 11:09:02;;;;;;;18.48;12.07;;;;;;;11.28;85.45;99555.84;4948951;28;20414;-62
2023/04/29 11:11:44;;;;;;;18.90;11.57;;;;;;;11.47;85.62;99553.78;4940227;28;20287;-62
2023/04/29 11:14:13;;;;;;;21.92;12.90;;;;;;;11.31;86.02;99552.69;4947238;28;20071;-62
2023/04/29 11:16:47;;;;;;;19.13;12.30;;;;;;;11.42;87.06;99559.88;4945666;28;20404;-62
2023/04/29 11:19:15;;;;;;;19.00;11.95;;;;;;;11.48;88.18;99557.28;4941951;28;20047;-62
2023/04/29 11:21:42;;;;;;;18.23;11.15;;;;;;;11.30;86.55;99563.66;4937549;28;20056;-62
2023/04/29 11:24:09;;;;;;;19.15;12.40;;;;;;;11.45;87.12;99563.94;4944920;28;20560;-62
2023/04/29 11:26:36;;;;;;;21.83;13.40;;;;;;;10.93;89.18;99562.16;4951205;28;20398;-62
2023/04/29 11:29:03;;;;;;;21.73;13.32;;;;;;;10.88;89.07;99564.69;4940158;28;20435;-62